Time;durP1;ratioP1;P1;durP2;ratioP2;P2;SDS_P1;SDS_P2;PMS_P1;PMS_P2;Temp;Humidity;BMP_temperature;BMP_pressure;BME280_temperature;BME280_humidity;BME280_pressure;Samples;Min_cycle;Max_cycle;Signal;HPM_P1;HPM_P2
2022/07/27 00:01:39;;;;;;;2.05;1.17;;;21.90;99.90;;;;;;5021451;28;20053;-84
2022/07/27 00:04:17;;;;;;;4.50;1.17;;;21.80;99.90;;;;;;5021032;28;20069;-84
2022/07/27 00:06:44;;;;;;;3.38;1.00;;;21.80;99.90;;;;;;5022776;28;20061;-83
2022/07/27 00:09:11;;;;;;;2.72;0.80;;;21.70;99.90;;;;;;5025011;28;20128;-83
2022/07/27 00:11:38;;;;;;;2.67;0.93;;;21.60;99.90;;;;;;5022372;28;20050;-84
2022/07/27 00:14:05;;;;;;;2.50;0.90;;;21.60;99.90;;;;;;5027859;28;20096;-84
2022/07/27 00:16:32;;;;;;;3.53;1.23;;;21.60;99.90;;;;;;5027195;28;20053;-83
2022/07/27 00:18:59;;;;;;;4.47;1.23;;;21.60;99.90;;;;;;5027962;28;20076;-84
2022/07/27 00:21:25;;;;;;;6.95;1.00;;;21.60;99.90;;;;;;5023570;28;20496;-83
2022/07/27 00:23:53;;;;;;;5.07;1.20;;;21.60;99.90;;;;;;5022747;28;20473;-84
2022/07/27 00:26:20;;;;;;;3.92;0.98;;;21.50;99.90;;;;;;5018475;28;20096;-84
2022/07/27 00:28:47;;;;;;;2.78;1.10;;;21.50;99.90;;;;;;5024250;28;20128;-83
2022/07/27 00:31:15;;;;;;;3.60;0.90;;;21.50;99.90;;;;;;5023824;28;20149;-83
2022/07/27 00:33:42;;;;;;;8.35;1.98;;;21.50;99.90;;;;;;5021366;28;20503;-84
2022/07/27 00:36:09;;;;;;;1.75;0.93;;;21.60;99.90;;;;;;5024570;28;20140;-83
2022/07/27 00:38:36;;;;;;;3.90;1.25;;;21.50;99.90;;;;;;5022469;28;20050;-84
2022/07/27 00:41:03;;;;;;;1.55;0.93;;;21.50;99.90;;;;;;5025499;28;20124;-84
2022/07/27 00:43:29;;;;;;;2.00;0.80;;;21.50;99.90;;;;;;5027444;28;20077;-84
2022/07/27 00:45:56;;;;;;;2.65;0.80;;;21.50;99.90;;;;;;5031251;28;20467;-84
2022/07/27 00:48:23;;;;;;;2.40;0.95;;;21.40;99.90;;;;;;5023518;28;20045;-84
2022/07/27 00:50:54;;;;;;;2.95;1.00;;;21.40;99.90;;;;;;5020978;28;20050;-84
2022/07/27 00:53:20;;;;;;;5.50;1.13;;;21.40;99.90;;;;;;5022555;28;20090;-84
2022/07/27 00:55:47;;;;;;;3.58;1.00;;;21.40;99.90;;;;;;5021696;28;20476;-84
2022/07/27 00:58:15;;;;;;;4.07;1.00;;;21.30;99.90;;;;;;5020764;28;20089;-83
2022/07/27 01:00:44;;;;;;;2.42;0.82;;;21.30;99.90;;;;;;5022711;28;20080;-84
2022/07/27 01:03:11;;;;;;;1.90;0.80;;;21.30;99.90;;;;;;5020487;28;20085;-84
2022/07/27 01:05:42;;;;;;;3.47;1.00;;;21.10;99.90;;;;;;5022006;28;20107;-84
2022/07/27 01:08:12;;;;;;;1.70;0.80;;;21.00;99.90;;;;;;5021671;28;20084;-83
2022/07/27 01:10:40;;;;;;;1.70;1.00;;;20.90;99.90;;;;;;5019997;28;20061;-84
2022/07/27 01:13:07;;;;;;;4.78;1.10;;;20.90;99.90;;;;;;5023612;28;20103;-84
2022/07/27 01:15:39;;;;;;;3.53;1.00;;;20.90;99.90;;;;;;5020091;28;20054;-84
2022/07/27 01:18:28;;;;;;;4.63;1.23;;;20.90;99.90;;;;;;5024013;28;20073;-84
2022/07/27 01:20:56;;;;;;;2.63;1.00;;;20.90;99.90;;;;;;5022547;28;20050;-84
2022/07/27 01:23:24;;;;;;;3.58;1.05;;;20.90;99.90;;;;;;5029459;28;20072;-83
2022/07/27 01:25:52;;;;;;;5.32;1.00;;;20.90;99.90;;;;;;5032801;28;20045;-84
2022/07/27 01:28:19;;;;;;;3.90;0.98;;;20.80;99.90;;;;;;5023603;28;20423;-84
2022/07/27 01:30:46;;;;;;;3.08;0.90;;;20.80;99.90;;;;;;5033022;28;20054;-84
2022/07/27 01:33:12;;;;;;;4.40;1.10;;;20.80;99.90;;;;;;5031825;28;20050;-84
2022/07/27 01:35:39;;;;;;;1.70;0.82;;;20.80;99.90;;;;;;5032194;28;20085;-84
2022/07/27 01:38:10;;;;;;;2.17;1.10;;;20.80;99.90;;;;;;5033914;28;20109;-84
2022/07/27 01:40:36;;;;;;;;;;;20.80;99.90;;;;;;5032011;28;20113;-83
2022/07/27 01:43:04;;;;;;;4.20;1.10;;;20.80;99.90;;;;;;5029400;28;19927;-84
2022/07/27 01:45:31;;;;;;;5.28;1.15;;;20.80;99.90;;;;;;5027848;28;20052;-84
2022/07/27 01:47:57;;;;;;;5.55;1.20;;;20.90;99.90;;;;;;5029521;28;20041;-83
2022/07/27 01:50:24;;;;;;;2.30;0.90;;;20.80;99.90;;;;;;5029075;28;20057;-83
2022/07/27 01:52:51;;;;;;;4.63;1.38;;;20.80;99.90;;;;;;5027818;28;20049;-84
2022/07/27 01:55:18;;;;;;;2.90;1.58;;;20.80;99.90;;;;;;5033036;28;20408;-84
2022/07/27 01:57:44;;;;;;;5.35;1.10;;;20.80;99.90;;;;;;5029075;28;20136;-84
2022/07/27 02:00:12;;;;;;;1.75;1.00;;;20.70;99.90;;;;;;5027496;28;20074;-84
2022/07/27 02:02:39;;;;;;;2.97;1.17;;;20.80;99.90;;;;;;5028730;28;20058;-84
2022/07/27 02:05:10;;;;;;;5.93;1.20;;;20.70;99.90;;;;;;5028936;28;20046;-84
2022/07/27 02:07:39;;;;;;;3.65;1.48;;;20.70;99.90;;;;;;5015047;28;20042;-84
2022/07/27 02:10:07;;;;;;;6.68;1.27;;;20.70;99.90;;;;;;5029519;28;20048;-83
2022/07/27 02:12:36;;;;;;;2.67;1.00;;;20.70;99.90;;;;;;5030659;28;20049;-84
2022/07/27 02:15:12;;;;;;;5.47;1.42;;;20.60;99.90;;;;;;5027968;28;20049;-83
2022/07/27 02:17:42;;;;;;;2.78;1.00;;;20.60;99.90;;;;;;5023867;28;20401;-84
2022/07/27 02:20:12;;;;;;;2.57;1.10;;;20.60;99.90;;;;;;5028582;28;20050;-84
2022/07/27 02:22:39;;;;;;;3.85;1.00;;;20.50;99.90;;;;;;5030938;28;20083;-83
2022/07/27 02:25:06;;;;;;;6.82;1.55;;;20.50;99.90;;;;;;5026422;28;20116;-84
2022/07/27 02:27:33;;;;;;;8.32;1.20;;;20.50;99.90;;;;;;5030940;28;20462;-84
2022/07/27 02:30:00;;;;;;;5.50;0.98;;;20.60;99.90;;;;;;5031799;28;20057;-84
2022/07/27 02:32:27;;;;;;;4.78;1.02;;;20.60;99.90;;;;;;5031673;28;20989;-84
2022/07/27 02:34:53;;;;;;;2.42;1.20;;;20.60;99.90;;;;;;5036110;28;20069;-84
2022/07/27 02:37:20;;;;;;;2.88;1.02;;;20.60;99.90;;;;;;5033016;28;20412;-84
2022/07/27 02:39:48;;;;;;;2.72;1.20;;;20.60;99.90;;;;;;5030994;28;20052;-84
2022/07/27 02:42:15;;;;;;;3.00;1.10;;;20.60;99.90;;;;;;5029815;28;20101;-84
2022/07/27 02:44:41;;;;;;;3.45;1.15;;;20.60;99.90;;;;;;5030399;28;20049;-84
2022/07/27 02:47:08;;;;;;;5.65;1.38;;;20.70;99.90;;;;;;5031138;28;20083;-84
2022/07/27 02:49:35;;;;;;;2.92;0.82;;;20.60;99.90;;;;;;5028819;28;20054;-84
2022/07/27 02:52:04;;;;;;;5.68;1.30;;;20.70;99.90;;;;;;5023785;28;20105;-84
2022/07/27 02:54:31;;;;;;;3.72;1.65;;;20.70;99.90;;;;;;5030615;28;20060;-84
2022/07/27 02:57:03;;;;;;;2.05;1.10;;;20.70;99.90;;;;;;5029135;28;20072;-84
2022/07/27 02:59:30;;;;;;;4.88;1.15;;;20.70;99.90;;;;;;5025235;28;20057;-84
2022/07/27 03:01:57;;;;;;;5.57;1.00;;;20.70;99.90;;;;;;5032696;28;20054;-84
2022/07/27 03:04:24;;;;;;;7.50;1.25;;;20.80;99.90;;;;;;5028884;28;20041;-84
2022/07/27 03:06:52;;;;;;;2.38;1.17;;;20.80;99.90;;;;;;5031359;28;20045;-84
2022/07/27 03:09:18;;;;;;;4.65;1.48;;;20.80;99.90;;;;;;5031509;28;20046;-84
2022/07/27 03:11:58;;;;;;;2.25;0.88;;;20.70;99.90;;;;;;5026928;28;20058;-84
2022/07/27 03:14:25;;;;;;;4.93;1.13;;;20.70;99.90;;;;;;5031845;28;20076;-85
2022/07/27 03:16:51;;;;;;;5.50;1.23;;;20.70;99.90;;;;;;5032734;28;20042;-84
2022/07/27 03:19:18;;;;;;;2.05;0.90;;;20.80;99.90;;;;;;5029951;28;20124;-84
2022/07/27 03:21:45;;;;;;;4.07;1.10;;;20.80;99.90;;;;;;5033612;28;20049;-84
2022/07/27 03:24:12;;;;;;;4.03;1.33;;;20.80;99.90;;;;;;5028375;28;20042;-84
2022/07/27 03:26:39;;;;;;;1.13;1.00;;;20.80;99.90;;;;;;5032895;28;20132;-84
2022/07/27 03:29:06;;;;;;;4.53;1.30;;;20.80;99.90;;;;;;5032075;28;20073;-84
2022/07/27 03:31:32;;;;;;;3.20;1.10;;;20.80;99.90;;;;;;5036563;28;20053;-84
2022/07/27 03:33:59;;;;;;;4.85;1.27;;;20.80;99.90;;;;;;5031856;28;20053;-84
2022/07/27 03:36:27;;;;;;;4.57;1.23;;;20.80;99.90;;;;;;5037680;28;20050;-83
2022/07/27 03:38:56;;;;;;;2.58;1.00;;;20.80;99.90;;;;;;5043440;28;20053;-83
2022/07/27 03:41:23;;;;;;;3.83;1.42;;;20.80;99.90;;;;;;5042631;28;20039;-83
2022/07/27 03:43:49;;;;;;;2.53;1.20;;;20.70;99.90;;;;;;5030614;28;20415;-84
2022/07/27 03:46:16;;;;;;;3.97;1.25;;;20.70;99.90;;;;;;5031049;28;20041;-84
2022/07/27 03:48:43;;;;;;;6.53;1.45;;;20.70;99.90;;;;;;5028367;28;20073;-84
2022/07/27 03:51:10;;;;;;;5.75;1.58;;;20.70;99.90;;;;;;5030715;28;20049;-84
2022/07/27 03:53:36;;;;;;;4.60;1.00;;;20.60;99.90;;;;;;5029952;28;20543;-84
2022/07/27 03:56:03;;;;;;;6.10;1.40;;;20.50;99.90;;;;;;5028283;28;20105;-84
2022/07/27 03:58:30;;;;;;;2.40;1.23;;;20.50;99.90;;;;;;5029936;28;20464;-84
2022/07/27 04:00:57;;;;;;;2.33;1.15;;;20.50;99.90;;;;;;5031805;28;20084;-84
2022/07/27 04:03:24;;;;;;;3.67;1.30;;;20.50;99.90;;;;;;5029085;28;20050;-84
2022/07/27 04:05:52;;;;;;;5.80;1.20;;;20.50;99.90;;;;;;5026143;28;20070;-84
2022/07/27 04:08:20;;;;;;;2.05;1.05;;;20.40;99.90;;;;;;5032074;28;20563;-83
2022/07/27 04:10:47;;;;;;;2.47;1.10;;;20.30;99.90;;;;;;5030350;28;20054;-84
2022/07/27 04:13:13;;;;;;;6.65;1.65;;;20.30;99.90;;;;;;5031298;28;20077;-84
2022/07/27 04:15:40;;;;;;;5.00;1.23;;;20.30;99.90;;;;;;5032249;28;20049;-84
2022/07/27 04:18:07;;;;;;;4.28;1.30;;;20.20;99.90;;;;;;5033614;28;20069;-84
2022/07/27 04:20:34;;;;;;;4.15;1.25;;;20.20;99.90;;;;;;5028969;28;20128;-84
2022/07/27 04:23:00;;;;;;;7.68;1.40;;;20.20;99.90;;;;;;5032067;28;20148;-84
2022/07/27 04:25:27;;;;;;;2.47;1.23;;;20.30;99.90;;;;;;5030241;28;20089;-84
2022/07/27 04:27:54;;;;;;;3.95;1.85;;;20.30;99.90;;;;;;5033986;28;20053;-83
2022/07/27 04:30:21;;;;;;;5.93;1.25;;;20.30;99.90;;;;;;5032276;28;20050;-84
2022/07/27 04:32:48;;;;;;;4.75;1.15;;;20.30;99.90;;;;;;5037431;28;20050;-83
2022/07/27 04:35:14;;;;;;;3.85;1.40;;;20.30;99.90;;;;;;5038828;28;20058;-84
2022/07/27 04:37:41;;;;;;;2.20;1.15;;;20.30;99.90;;;;;;5037842;28;20078;-83
2022/07/27 04:40:25;;;;;;;5.55;1.35;;;20.40;99.90;;;;;;5030604;28;20053;-80
2022/07/27 04:42:51;;;;;;;3.75;1.10;;;20.30;99.90;;;;;;5034188;28;20060;-84
2022/07/27 04:45:18;;;;;;;7.00;1.48;;;20.30;99.90;;;;;;5029475;28;20073;-84
2022/07/27 04:47:45;;;;;;;2.75;1.40;;;20.30;99.90;;;;;;5028188;28;20072;-84
2022/07/27 04:50:12;;;;;;;4.15;1.17;;;20.30;99.90;;;;;;5028826;28;20045;-84
2022/07/27 04:52:38;;;;;;;2.78;1.17;;;20.40;99.90;;;;;;5025821;28;20050;-84
2022/07/27 04:55:05;;;;;;;3.03;1.50;;;20.40;99.90;;;;;;5029137;28;20602;-84
2022/07/27 04:57:32;;;;;;;4.72;1.55;;;20.30;99.90;;;;;;5030951;28;20467;-84
2022/07/27 04:59:59;;;;;;;5.05;1.65;;;20.20;99.90;;;;;;5031778;28;20077;-84
2022/07/27 05:02:27;;;;;;;3.92;1.45;;;20.20;99.90;;;;;;5034110;28;20504;-84
2022/07/27 05:04:53;;;;;;;5.78;1.52;;;20.20;99.90;;;;;;5032786;28;20049;-84
2022/07/27 05:07:20;;;;;;;7.63;1.40;;;20.30;99.90;;;;;;5028044;28;20088;-84
2022/07/27 05:09:47;;;;;;;8.65;1.98;;;20.30;99.90;;;;;;5032143;28;20499;-84
2022/07/27 05:12:14;;;;;;;4.28;1.30;;;20.40;99.90;;;;;;5028839;28;20046;-84
2022/07/27 05:14:40;;;;;;;3.65;1.42;;;20.50;99.90;;;;;;5033531;28;20573;-84
2022/07/27 05:17:07;;;;;;;4.60;1.63;;;20.50;99.90;;;;;;5032836;28;20177;-84
2022/07/27 05:19:34;;;;;;;5.57;1.52;;;20.50;99.90;;;;;;5036303;28;20117;-84
2022/07/27 05:22:06;;;;;;;1.88;1.02;;;20.60;99.90;;;;;;5033349;28;20053;-84
2022/07/27 05:24:33;;;;;;;3.47;1.00;;;20.70;99.90;;;;;;5029686;28;20045;-84
2022/07/27 05:27:00;;;;;;;4.20;1.40;;;20.80;99.90;;;;;;5030276;28;20099;-84
2022/07/27 05:29:27;;;;;;;4.68;1.70;;;20.90;99.90;;;;;;5033455;28;20108;-84
2022/07/27 05:31:53;;;;;;;3.50;1.60;;;20.90;99.90;;;;;;5028277;28;20081;-84
2022/07/27 05:34:20;;;;;;;3.33;1.25;;;20.90;99.90;;;;;;5038050;28;20052;-84
2022/07/27 05:36:47;;;;;;;4.13;1.40;;;20.90;99.90;;;;;;5032810;28;20482;-84
2022/07/27 05:39:14;;;;;;;4.63;1.60;;;20.90;99.90;;;;;;5028676;28;20057;-84
2022/07/27 05:41:41;;;;;;;6.10;1.48;;;20.90;99.90;;;;;;5028183;28;20495;-83
2022/07/27 05:44:08;;;;;;;3.03;1.33;;;20.80;99.90;;;;;;5030766;28;20048;-83
2022/07/27 05:46:35;;;;;;;5.25;1.60;;;20.90;99.90;;;;;;5029019;28;20136;-83
2022/07/27 05:49:02;;;;;;;2.65;1.27;;;20.90;99.90;;;;;;5031746;28;20100;-83
2022/07/27 05:51:30;;;;;;;4.35;1.52;;;20.90;99.90;;;;;;5029826;28;20068;-83
2022/07/27 05:53:57;;;;;;;3.58;1.45;;;20.90;99.90;;;;;;5029109;28;20073;-83
2022/07/27 05:56:25;;;;;;;2.83;1.30;;;20.90;99.90;;;;;;5031572;28;20160;-83
2022/07/27 05:58:51;;;;;;;3.22;1.40;;;21.00;99.90;;;;;;5029103;28;20069;-83
2022/07/27 06:01:18;;;;;;;3.22;1.42;;;21.00;99.90;;;;;;5038236;28;20535;-83
2022/07/27 06:03:45;;;;;;;3.58;1.58;;;21.00;99.90;;;;;;5031032;28;20064;-83
2022/07/27 06:09:00;;;;;;;2.85;1.20;;;21.10;99.90;;;;;;5029436;28;20056;-83
2022/07/27 06:11:27;;;;;;;3.40;1.40;;;21.20;99.90;;;;;;5031098;28;20476;-83
2022/07/27 06:13:54;;;;;;;7.15;1.25;;;21.20;99.90;;;;;;5030673;28;20065;-83
2022/07/27 06:16:22;;;;;;;2.22;1.15;;;21.30;99.90;;;;;;5030616;28;20057;-83
2022/07/27 06:18:49;;;;;;;4.45;1.58;;;21.40;99.90;;;;;;5027039;28;20046;-83
2022/07/27 06:21:15;;;;;;;2.90;1.38;;;21.50;99.90;;;;;;5032790;28;20080;-83
2022/07/27 06:23:42;;;;;;;3.72;1.50;;;21.60;99.90;;;;;;5033229;28;20087;-83
2022/07/27 06:26:09;;;;;;;2.70;1.20;;;21.60;99.90;;;;;;5032972;28;20050;-83
2022/07/27 06:28:36;;;;;;;5.85;1.50;;;21.80;99.90;;;;;;5029314;28;20061;-83
2022/07/27 06:31:03;;;;;;;3.03;1.00;;;21.80;99.90;;;;;;5034103;28;20073;-83
2022/07/27 06:33:32;;;;;;;3.47;1.30;;;21.90;99.90;;;;;;5030247;28;20524;-83
2022/07/27 06:35:59;;;;;;;9.57;1.55;;;22.00;99.90;;;;;;5030896;28;20145;-84
2022/07/27 06:38:27;;;;;;;4.85;1.50;;;22.00;99.90;;;;;;5031044;28;20132;-82
2022/07/27 06:40:55;;;;;;;6.32;1.45;;;22.10;99.90;;;;;;5033021;28;20084;-83
2022/07/27 06:43:26;;;;;;;4.70;1.70;;;22.10;99.90;;;;;;5030520;28;20079;-83
2022/07/27 06:45:53;;;;;;;6.60;1.60;;;21.90;99.90;;;;;;5032971;28;20052;-82
2022/07/27 06:48:21;;;;;;;6.95;1.60;;;21.90;99.90;;;;;;5031992;28;20046;-80
2022/07/27 06:50:48;;;;;;;4.68;1.30;;;21.80;99.90;;;;;;5041301;28;20061;-82
2022/07/27 06:53:15;;;;;;;4.15;1.20;;;21.70;99.90;;;;;;5044721;28;20057;-82
2022/07/27 06:55:46;;;;;;;8.50;1.88;;;21.70;99.90;;;;;;5038808;28;20057;-83
2022/07/27 06:58:13;;;;;;;6.20;1.42;;;21.60;99.90;;;;;;5042598;28;20041;-81
2022/07/27 07:00:40;;;;;;;4.10;1.30;;;21.70;99.90;;;;;;5043008;28;20077;-82
2022/07/27 07:03:06;;;;;;;2.22;1.20;;;21.60;99.90;;;;;;5042482;28;20101;-83
2022/07/27 07:05:42;;;;;;;6.63;1.85;;;21.60;99.90;;;;;;5044249;28;20057;-83
2022/07/27 07:08:13;;;;;;;5.28;1.58;;;21.70;99.90;;;;;;5040536;28;20070;-81
2022/07/27 07:10:42;;;;;;;4.75;1.30;;;21.60;99.90;;;;;;5041710;28;20049;-82
2022/07/27 07:13:09;;;;;;;2.20;1.40;;;21.60;99.90;;;;;;5042423;28;20045;-83
2022/07/27 07:15:38;;;;;;;2.92;1.52;;;21.70;99.90;;;;;;5044529;28;20053;-82
2022/07/27 07:18:06;;;;;;;7.28;1.60;;;21.80;99.90;;;;;;5043319;28;20050;-82
2022/07/27 07:20:34;;;;;;;5.43;1.70;;;21.90;99.90;;;;;;5041707;28;20072;-83
2022/07/27 07:23:01;;;;;;;5.07;1.67;;;21.90;99.90;;;;;;5044484;28;20157;-82
2022/07/27 07:25:29;;;;;;;1.83;1.27;;;21.90;99.90;;;;;;5044784;28;20053;-82
2022/07/27 07:27:56;;;;;;;4.78;1.65;;;22.00;99.90;;;;;;5040346;28;20050;-83
2022/07/27 07:30:23;;;;;;;6.32;2.63;;;22.10;99.90;;;;;;5043983;28;20041;-83
2022/07/27 07:32:51;;;;;;;3.63;1.80;;;22.20;99.90;;;;;;5040230;28;20062;-83
2022/07/27 07:35:17;;;;;;;6.80;1.65;;;22.40;99.90;;;;;;5043645;28;20049;-82
2022/07/27 07:37:44;;;;;;;4.78;1.42;;;22.40;99.90;;;;;;5040880;28;20075;-83
2022/07/27 07:40:16;;;;;;;3.05;1.70;;;22.40;99.90;;;;;;5038140;28;20057;-83
2022/07/27 07:43:05;;;;;;;4.90;1.60;;;22.50;99.90;;;;;;5038159;28;20468;-83
2022/07/27 07:45:36;;;;;;;6.13;1.63;;;22.50;99.90;;;;;;5038240;28;20053;-83
2022/07/27 07:48:15;;;;;;;3.53;1.60;;;22.50;99.90;;;;;;5029053;28;20109;-82
2022/07/27 07:50:43;;;;;;;6.03;2.20;;;22.60;99.90;;;;;;5042709;28;20052;-83
2022/07/27 07:53:10;;;;;;;3.15;1.40;;;22.70;99.90;;;;;;5042352;28;20068;-83
2022/07/27 07:55:40;;;;;;;4.75;1.83;;;22.90;99.90;;;;;;5035146;28;20046;-83
2022/07/27 07:58:07;;;;;;;3.10;1.38;;;22.80;99.90;;;;;;5042307;28;20084;-83
2022/07/27 08:00:34;;;;;;;8.38;1.55;;;22.90;99.90;;;;;;5041385;28;20072;-83
2022/07/27 08:03:01;;;;;;;3.78;1.63;;;23.00;99.90;;;;;;5043740;28;20045;-83
2022/07/27 08:05:31;;;;;;;6.78;1.70;;;23.00;99.90;;;;;;5034056;28;20046;-83
2022/07/27 08:07:58;;;;;;;5.03;1.75;;;23.00;99.90;;;;;;5029686;28;20140;-83
2022/07/27 08:10:25;;;;;;;7.55;1.65;;;23.10;99.90;;;;;;5033773;28;20073;-83
2022/07/27 08:12:55;;;;;;;6.50;2.15;;;23.10;99.90;;;;;;5031122;28;20499;-83
2022/07/27 08:15:22;;;;;;;9.65;2.55;;;23.30;99.90;;;;;;5032139;28;20050;-83
2022/07/27 08:18:01;;;;;;;5.53;1.43;;;23.40;99.90;;;;;;5026710;28;20058;-83
2022/07/27 08:20:28;;;;;;;9.73;1.95;;;23.40;99.90;;;;;;5031462;28;20057;-84
2022/07/27 08:22:54;;;;;;;7.82;1.98;;;23.50;99.90;;;;;;5030863;28;20073;-83
2022/07/27 08:25:21;;;;;;;14.73;2.95;;;23.30;99.90;;;;;;5030747;28;20049;-83
2022/07/27 08:27:48;;;;;;;7.68;1.90;;;23.40;99.90;;;;;;5031715;28;20045;-84
2022/07/27 08:30:15;;;;;;;3.95;1.80;;;23.40;99.90;;;;;;5030630;28;20519;-84
2022/07/27 08:32:48;;;;;;;8.30;2.00;;;23.40;99.90;;;;;;5037017;28;20565;-84
2022/07/27 08:35:16;;;;;;;6.50;2.03;;;23.40;99.90;;;;;;5035598;28;20284;-84
2022/07/27 08:37:43;;;;;;;6.25;2.15;;;23.50;99.90;;;;;;5033738;28;20058;-83
2022/07/27 08:40:11;;;;;;;6.50;2.03;;;23.40;99.90;;;;;;5035628;28;20076;-83
2022/07/27 08:43:00;;;;;;;5.68;1.80;;;23.30;99.90;;;;;;5031613;28;20052;-84
2022/07/27 08:45:29;;;;;;;9.70;2.10;;;23.30;99.90;;;;;;5029549;28;20057;-83
2022/07/27 08:47:56;;;;;;;7.75;2.60;;;23.40;99.90;;;;;;5034781;28;20056;-83
2022/07/27 08:50:23;;;;;;;11.93;2.53;;;23.20;99.90;;;;;;5035665;28;20046;-83
2022/07/27 08:52:58;;;;;;;9.68;2.08;;;23.20;99.90;;;;;;5033698;28;20050;-83
2022/07/27 08:55:27;;;;;;;5.47;1.63;;;23.10;99.90;;;;;;5029833;28;20054;-83
2022/07/27 08:57:54;;;;;;;7.75;1.85;;;23.20;99.90;;;;;;5036013;28;20084;-83
2022/07/27 09:00:28;;;;;;;4.55;1.85;;;23.20;99.90;;;;;;5036495;28;20077;-83
2022/07/27 09:02:56;;;;;;;5.05;1.58;;;23.30;99.90;;;;;;5032849;28;20485;-83
2022/07/27 09:05:23;;;;;;;4.10;1.50;;;23.40;99.90;;;;;;5036484;28;20041;-83
2022/07/27 09:07:53;;;;;;;4.10;1.60;;;23.60;99.90;;;;;;5035432;28;20042;-84
2022/07/27 09:10:34;;;;;;;6.65;2.08;;;23.70;99.90;;;;;;5033653;28;20419;-83
2022/07/27 09:13:20;;;;;;;2.72;1.50;;;23.80;99.90;;;;;;5027504;28;20121;-83
2022/07/27 09:15:49;;;;;;;10.93;1.77;;;23.90;99.90;;;;;;5029507;28;20081;-83
2022/07/27 09:18:38;;;;;;;7.53;1.92;;;23.90;99.90;;;;;;5029455;28;20060;-83
2022/07/27 09:21:16;;;;;;;7.35;1.50;;;24.00;99.90;;;;;;5034008;28;20422;-83
2022/07/27 09:24:07;;;;;;;7.13;1.75;;;24.00;99.90;;;;;;5035825;28;20072;-83
2022/07/27 09:27:02;;;;;;;6.35;1.67;;;23.90;99.90;;;;;;5033966;28;20060;-83
2022/07/27 09:29:34;;;;;;;6.07;1.63;;;23.90;99.90;;;;;;5029075;28;20100;-83
2022/07/27 09:32:13;;;;;;;6.57;2.03;;;23.90;99.90;;;;;;5034925;28;20120;-82
2022/07/27 09:34:40;;;;;;;4.03;1.85;;;23.80;99.90;;;;;;5027141;28;20085;-83
2022/07/27 09:37:08;;;;;;;6.25;1.45;;;23.60;99.90;;;;;;5035397;28;20057;-84
2022/07/27 09:39:35;;;;;;;8.50;1.90;;;23.50;99.90;;;;;;5033002;28;20056;-84
2022/07/27 09:42:02;;;;;;;3.92;1.60;;;23.50;99.90;;;;;;5030582;28;20065;-84
2022/07/27 09:44:46;;;;;;;1.88;1.13;;;23.40;99.90;;;;;;5034894;28;20095;-83
2022/07/27 09:47:26;;;;;;;;;;;23.40;99.90;;;;;;5032334;28;20069;-84
2022/07/27 09:49:56;;;;;;;4.90;1.50;;;23.30;99.90;;;;;;5029775;28;19928;-83
2022/07/27 09:52:26;;;;;;;4.68;1.65;;;23.30;99.90;;;;;;5033107;28;20045;-83
2022/07/27 09:54:53;;;;;;;4.50;1.50;;;23.30;99.90;;;;;;5034827;28;20303;-83
2022/07/27 09:57:20;;;;;;;6.47;1.40;;;23.30;99.90;;;;;;5030374;28;20049;-83
2022/07/27 09:59:47;;;;;;;3.65;1.52;;;23.30;99.90;;;;;;5032973;28;20084;-83
2022/07/27 10:02:14;;;;;;;4.18;1.38;;;23.40;99.90;;;;;;5033306;28;20050;-83
2022/07/27 10:04:42;;;;;;;6.93;1.55;;;23.40;99.90;;;;;;5032004;28;20054;-83
2022/07/27 10:07:10;;;;;;;4.15;1.30;;;23.50;99.90;;;;;;5032882;28;20079;-83
2022/07/27 10:09:39;;;;;;;;;;;23.50;99.90;;;;;;5031507;28;20081;-83
2022/07/27 10:12:07;;;;;;;4.45;1.40;;;23.60;99.90;;;;;;5033756;28;19921;-83
2022/07/27 10:14:35;;;;;;;1.48;1.23;;;23.60;99.90;;;;;;5032578;28;20050;-83
2022/07/27 10:17:02;;;;;;;4.65;1.30;;;23.60;99.90;;;;;;5031408;28;20113;-83
2022/07/27 10:19:28;;;;;;;4.82;1.10;;;23.60;99.90;;;;;;5034118;28;20512;-83
2022/07/27 10:21:55;;;;;;;3.45;1.33;;;23.60;99.90;;;;;;5030979;28;20073;-83
2022/07/27 10:24:27;;;;;;;4.07;1.40;;;23.70;99.90;;;;;;5034499;28;20073;-83
2022/07/27 10:26:54;;;;;;;4.70;1.40;;;23.80;99.90;;;;;;5031763;28;20045;-83
2022/07/27 10:29:22;;;;;;;3.33;1.52;;;23.80;99.90;;;;;;5032195;28;20049;-83
2022/07/27 10:31:59;;;;;;;1.85;0.80;;;23.90;99.90;;;;;;5034449;28;20073;-83
2022/07/27 10:34:42;;;;;;;2.80;1.15;;;23.90;99.90;;;;;;5029207;28;20054;-83
2022/07/27 10:37:22;;;;;;;4.95;1.38;;;23.90;99.90;;;;;;5026868;28;20077;-83
2022/07/27 10:40:32;;;;;;;4.95;1.08;;;24.00;99.90;;;;;;5028772;28;20104;-83
2022/07/27 10:42:39;;;;;;;2.22;0.95;;;24.10;99.90;;;;;;5030619;28;20049;-83
2022/07/27 10:45:12;;;;;;;3.17;0.93;;;24.20;99.90;;;;;;5029436;28;20045;-82
2022/07/27 10:47:48;;;;;;;3.67;0.75;;;24.20;99.90;;;;;;5032393;28;20068;-83
2022/07/27 10:50:14;;;;;;;3.03;0.90;;;24.20;99.90;;;;;;5031572;28;20080;-83
2022/07/27 10:52:50;;;;;;;2.25;0.80;;;24.30;99.90;;;;;;5029535;28;20042;-83
2022/07/27 10:55:28;;;;;;;6.13;1.10;;;24.40;99.90;;;;;;5030956;28;20419;-83
2022/07/27 10:58:02;;;;;;;2.72;0.90;;;24.50;99.90;;;;;;5024770;28;20045;-83
2022/07/27 11:00:47;;;;;;;6.70;1.30;;;24.60;99.90;;;;;;5030263;28;20068;-83
2022/07/27 11:03:24;;;;;;;3.72;0.80;;;24.70;99.90;;;;;;5025982;28;20051;-83
2022/07/27 11:06:07;;;;;;;1.20;0.85;;;24.90;99.90;;;;;;5029784;28;20081;-83
2022/07/27 11:08:55;;;;;;;2.63;0.95;;;25.10;99.90;;;;;;5025017;28;20080;-83
2022/07/27 11:11:41;;;;;;;3.08;1.23;;;25.10;99.90;;;;;;5026196;28;20046;-83
2022/07/27 11:14:10;;;;;;;2.95;0.90;;;25.20;99.90;;;;;;5031232;28;20061;-83
2022/07/27 11:16:37;;;;;;;1.85;0.90;;;25.20;99.90;;;;;;5029900;28;20054;-83
2022/07/27 11:19:22;;;;;;;3.58;1.10;;;25.30;99.90;;;;;;5027225;28;20128;-83
2022/07/27 11:21:51;;;;;;;4.18;1.45;;;25.30;99.90;;;;;;5031444;28;20050;-83
2022/07/27 11:24:18;;;;;;;3.67;1.27;;;25.30;99.90;;;;;;5031474;28;20046;-83
2022/07/27 11:26:50;;;;;;;0.98;0.80;;;25.30;99.90;;;;;;5028632;28;20072;-83
2022/07/27 11:29:23;;;;;;;3.65;1.00;;;25.30;99.90;;;;;;5031125;28;20060;-84
2022/07/27 11:31:53;;;;;;;3.20;0.98;;;25.20;99.90;;;;;;5031545;28;20081;-83
2022/07/27 11:34:28;;;;;;;1.52;0.70;;;25.10;99.90;;;;;;5025379;28;20081;-83
2022/07/27 11:37:00;;;;;;;1.20;0.93;;;25.10;99.90;;;;;;5030216;28;20400;-83
2022/07/27 11:39:29;;;;;;;4.15;1.10;;;25.00;99.90;;;;;;5031895;28;20123;-83
2022/07/27 11:42:16;;;;;;;2.50;1.00;;;25.00;99.90;;;;;;5030888;28;20056;-83
2022/07/27 11:44:46;;;;;;;1.98;0.80;;;25.00;99.90;;;;;;5020687;28;20058;-83
2022/07/27 11:47:19;;;;;;;1.58;0.90;;;25.10;99.90;;;;;;5031896;28;20072;-83
2022/07/27 11:49:45;;;;;;;5.40;1.20;;;25.10;99.90;;;;;;5034869;28;20072;-83
2022/07/27 11:52:16;;;;;;;2.13;0.82;;;25.20;99.90;;;;;;5031007;28;20060;-85
2022/07/27 11:54:50;;;;;;;1.40;0.98;;;25.20;99.90;;;;;;5025936;28;20488;-82
2022/07/27 11:57:19;;;;;;;2.15;1.00;;;25.20;99.90;;;;;;5030495;28;20088;-82
2022/07/27 11:59:46;;;;;;;3.42;1.25;;;25.20;99.90;;;;;;5032524;28;20099;-82
2022/07/27 12:02:16;;;;;;;2.78;1.10;;;25.20;99.90;;;;;;5027230;28;20071;-84
2022/07/27 12:04:46;;;;;;;2.60;0.98;;;25.20;99.90;;;;;;5026864;28;20046;-84
2022/07/27 12:07:26;;;;;;;7.18;0.95;;;25.20;99.90;;;;;;5029224;28;20052;-84
2022/07/27 12:09:58;;;;;;;8.15;1.20;;;25.30;99.90;;;;;;5027811;28;20042;-84
2022/07/27 12:12:26;;;;;;;4.50;1.25;;;25.30;99.90;;;;;;5031281;28;20558;-83
2022/07/27 12:14:58;;;;;;;3.67;0.80;;;25.30;99.90;;;;;;5032135;28;20077;-84
2022/07/27 12:17:31;;;;;;;5.80;1.00;;;25.30;99.90;;;;;;5025937;28;20121;-84
2022/07/27 12:20:13;;;;;;;2.28;0.80;;;25.30;99.90;;;;;;5030285;28;20057;-84
2022/07/27 12:22:47;;;;;;;5.97;1.15;;;25.30;99.90;;;;;;5028792;28;20054;-83
2022/07/27 12:25:17;;;;;;;5.00;1.27;;;25.30;99.90;;;;;;5032311;28;20045;-83
2022/07/27 12:28:00;;;;;;;1.73;0.85;;;25.20;99.90;;;;;;5044217;28;20044;-83
2022/07/27 12:30:33;;;;;;;2.40;1.15;;;25.10;99.90;;;;;;5041613;28;20057;-83
2022/07/27 12:33:02;;;;;;;4.30;1.20;;;25.10;99.90;;;;;;5038495;28;20104;-85
2022/07/27 12:35:32;;;;;;;4.43;1.08;;;25.20;99.90;;;;;;5031046;28;20068;-84
2022/07/27 12:38:07;;;;;;;2.00;0.82;;;25.40;99.90;;;;;;5032011;28;20049;-85
2022/07/27 12:40:52;;;;;;;1.88;0.93;;;25.50;99.90;;;;;;5026907;28;20050;-83
2022/07/27 12:43:26;;;;;;;3.35;1.13;;;25.80;99.90;;;;;;5024245;28;20462;-83
2022/07/27 12:45:54;;;;;;;3.75;1.30;;;26.00;99.90;;;;;;5032444;28;20041;-83
2022/07/27 12:48:26;;;;;;;3.63;1.33;;;26.00;99.90;;;;;;5030188;28;20443;-82
2022/07/27 12:51:05;;;;;;;2.67;1.25;;;26.20;99.90;;;;;;5028971;28;20126;-84
2022/07/27 12:53:33;;;;;;;4.57;1.38;;;26.30;99.90;;;;;;5027704;28;20077;-83
2022/07/27 12:56:07;;;;;;;2.78;1.00;;;26.40;99.90;;;;;;5030132;28;20141;-83
2022/07/27 12:58:34;;;;;;;3.92;1.20;;;26.40;99.90;;;;;;5024833;28;20085;-83
2022/07/27 13:01:02;;;;;;;3.47;1.20;;;26.40;99.90;;;;;;5031616;28;20052;-83
2022/07/27 13:03:29;;;;;;;9.07;1.30;;;26.30;99.90;;;;;;5028754;28;20471;-83